Disclaimer

Please do not use the information listed here in-flight or in-navigation, as they are not provided to us by the airports but are provided by volunteers, so they might be outdated.

Search


Regions


Airport information page

Radio informations:
AL HOCEIMA TWR - 118.7 MHz

Airport informations:
Latitude: 35° 10' 37.57" N
Longitude: 003° 50' 22.29" W
Elevation: 95 feet - 29 meters
Operating hours: 24 hour operations
Operating agency: Civil government, landing fees and diplomatic clearance may be required
Timezone: UTC 0
Fuel: Jet A1, without icing nhibitor.

100/130 MIL Spec, low lead, aviation gasoline (BLUE)

Runway information:
18/36 - 8202 x 148 feet< - >2500 x 45 meters

Recent METARs:
GMTA 130300Z 20002KT 8000 SCT016 BKN023 14/13 Q1019 NOSIG
GMTA 130300Z 20002KT 8000 SCT016 BKN023 14/13 Q1019 NOSIG
GMTA 130400Z 17003KT 6000 FEW019 15/// Q1019 NOSIG

Airport on the map: